LiveATC.Net - Listen to live air traffic control over the Internet! Contact LiveATC.net for advertising information


ICAO: KKLS  IATA: KLS   Airport: Southwest Washington Regional Airport
City: Kelso   State/Province: Washington
Country: United States   Continent: North America
KKLS METAR Weather: KKLS 201355Z 00000KT M1/4SM OVC001 04/02 A3032 RMK AO1
KKLS Flight Activity (FlightAware)
KKLS Airport Info   (AirNav) (iFlightPlanner)
KKLS CTAF
Feed Status: DOWN
Last heard on: 2013-12-06 05:26:04 (135 days 8 hours 45 minutes ago)
KKLS CTAF Audio Archives
FacilityFrequency
Kelso CTAF/UNICOM122.800


NOTICE

Unauthorized use prohibited. See LiveATC.net Terms of Service


Find LiveATC Audio Streams


Airport/ARTCC Code

Frequency
(e.g., 124.400, 128.75)
Site-wide search

Browse LiveATC Feeds
LiveATC Coverage Map
Top 50 LiveATC Feeds
Bad Weather Areas

LiveATC FAQ
Offer a LiveATC Feed
Contact LiveATC.net
Press Inquiries

LiveATC on iPhone
LiveATC on Android

LiveATC Mobile
(Mobile browser)

ATC Audio Archives
Interesting Recordings

LiveATC Forums


Home Page
About LiveATC.net
Make a Donation
LiveATC Bookstore

Terms of Use
Privacy Policy

ATC/Radar Sites
U.S. ARTCC Freqs
Canadian Air Freqs

AIRMETs/SIGMETs

FAA Airport Status
Nat'l Airspace Status
Arrival Demand Charts


Server Software By:
Icecast.org
Liquidsoap

Please make a donation to help us keep growing!